createdAt,value
2018-05-01T00:00:24.901Z,0.00
2018-05-01T00:02:16.656Z,0.00
2018-05-01T00:03:16.592Z,0.00
2018-05-01T00:05:08.348Z,0.00
2018-05-01T00:06:08.277Z,0.00
2018-05-01T00:08:00.021Z,0.00
2018-05-01T00:08:59.963Z,0.00
2018-05-01T00:10:51.728Z,0.00
2018-05-01T00:11:51.656Z,0.00
2018-05-01T00:13:43.407Z,0.00
2018-05-01T00:14:43.345Z,0.00
2018-05-01T00:16:35.100Z,0.00
2018-05-01T00:17:35.027Z,0.00
2018-05-01T00:19:26.776Z,0.00
2018-05-01T00:20:26.710Z,0.00
2018-05-01T00:22:18.490Z,0.00
2018-05-01T00:23:18.420Z,0.00
2018-05-01T00:25:10.205Z,0.00
2018-05-01T00:26:10.127Z,0.00
2018-05-01T00:28:01.923Z,0.00
2018-05-01T00:29:01.876Z,0.00
2018-05-01T00:30:53.628Z,0.00
2018-05-01T00:31:53.560Z,0.00
2018-05-01T00:33:45.311Z,0.00
2018-05-01T00:34:45.245Z,0.00
2018-05-01T00:36:37.025Z,0.00
2018-05-01T00:37:36.951Z,0.00
2018-05-01T00:39:28.719Z,0.00
2018-05-01T00:40:28.655Z,0.00
2018-05-01T00:42:20.413Z,0.00
2018-05-01T00:43:20.342Z,0.00
2018-05-01T00:45:12.099Z,0.00
2018-05-01T00:46:12.033Z,0.00
2018-05-01T00:48:03.792Z,0.00
2018-05-01T00:49:03.730Z,0.00
2018-05-01T00:50:55.496Z,0.00
2018-05-01T00:51:55.418Z,0.00
2018-05-01T00:53:47.166Z,0.00
2018-05-01T00:54:47.105Z,0.00
2018-05-01T00:56:38.880Z,0.00
2018-05-01T00:57:38.808Z,0.00
2018-05-01T00:59:30.555Z,0.00
2018-05-01T01:00:30.492Z,0.00
2018-05-01T01:02:22.242Z,0.00
2018-05-01T01:03:22.174Z,0.00
2018-05-01T01:05:13.941Z,0.00
2018-05-01T01:06:13.883Z,0.00
2018-05-01T01:08:05.676Z,0.00
2018-05-01T01:09:05.606Z,0.00
2018-05-01T01:10:57.424Z,0.00
2018-05-01T01:11:57.292Z,0.00
2018-05-01T01:13:49.038Z,0.00
2018-05-01T01:14:48.976Z,0.00
2018-05-01T01:16:40.751Z,0.00
2018-05-01T01:17:40.679Z,0.00
2018-05-01T01:19:32.426Z,0.00
2018-05-01T01:20:32.365Z,0.00
2018-05-01T01:22:24.177Z,0.00
2018-05-01T01:23:24.101Z,0.00
2018-05-01T01:25:15.864Z,0.00
2018-05-01T01:26:15.803Z,0.00
2018-05-01T01:28:07.555Z,0.00
2018-05-01T01:29:07.485Z,0.00
2018-05-01T01:30:59.239Z,0.00
2018-05-01T01:31:59.169Z,0.00
2018-05-01T01:33:50.913Z,0.00
2018-05-01T01:34:50.851Z,0.00
2018-05-01T01:36:42.626Z,0.00
2018-05-01T01:37:42.552Z,0.00
2018-05-01T01:39:34.307Z,0.00
2018-05-01T01:40:34.246Z,0.00
2018-05-01T01:42:26.022Z,0.00
2018-05-01T01:43:25.957Z,0.00
2018-05-01T01:45:17.694Z,0.00
2018-05-01T01:46:17.634Z,0.00
2018-05-01T01:48:09.404Z,0.00
2018-05-01T01:49:09.345Z,0.00
2018-05-01T01:51:01.093Z,0.00
2018-05-01T01:52:01.023Z,0.00
2018-05-01T01:53:52.839Z,0.00
2018-05-01T01:54:52.764Z,0.00
2018-05-01T01:56:44.579Z,0.00
2018-05-01T01:57:44.509Z,0.00
2018-05-01T01:59:36.261Z,0.00
2018-05-01T02:00:36.197Z,0.00
2018-05-01T02:02:27.974Z,0.00
2018-05-01T02:03:27.904Z,0.00
2018-05-01T02:05:19.685Z,0.00
2018-05-01T02:06:19.630Z,0.00
2018-05-01T02:08:11.408Z,0.00
2018-05-01T02:09:11.314Z,0.00
2018-05-01T02:11:03.069Z,0.00
2018-05-01T02:12:03.010Z,0.00
2018-05-01T02:13:54.773Z,0.00
2018-05-01T02:14:54.710Z,0.00
2018-05-01T02:16:46.463Z,0.00
2018-05-01T02:17:46.390Z,0.00
2018-05-01T02:19:38.146Z,0.00
2018-05-01T02:20:38.083Z,0.00
2018-05-01T02:22:29.879Z,0.00
2018-05-01T02:23:29.822Z,0.00
2018-05-01T02:25:21.556Z,0.00
2018-05-01T02:26:21.492Z,0.00
2018-05-01T02:28:13.279Z,0.00
2018-05-01T02:29:13.212Z,0.00
2018-05-01T02:31:05.015Z,0.00
2018-05-01T02:32:04.920Z,0.00
2018-05-01T02:33:56.726Z,0.00
2018-05-01T02:34:56.649Z,0.00
2018-05-01T02:36:48.393Z,0.00
2018-05-01T02:37:48.348Z,0.00
2018-05-01T02:39:40.109Z,0.00
2018-05-01T02:40:40.032Z,0.00
2018-05-01T02:42:31.790Z,0.00
2018-05-01T02:43:31.718Z,0.00
2018-05-01T02:45:23.493Z,0.00
2018-05-01T02:46:23.431Z,0.00
2018-05-01T02:48:15.189Z,0.00
2018-05-01T02:49:15.119Z,0.00
2018-05-01T02:51:06.885Z,0.00
2018-05-01T02:52:06.815Z,0.00
2018-05-01T02:53:58.571Z,0.00
2018-05-01T02:54:58.501Z,0.00
2018-05-01T02:56:50.251Z,0.00
2018-05-01T02:57:50.187Z,0.00
2018-05-01T02:59:41.969Z,0.00
2018-05-01T03:00:41.917Z,0.00
2018-05-01T03:02:33.676Z,0.00
2018-05-01T03:03:33.586Z,0.00
2018-05-01T03:05:25.349Z,0.00
2018-05-01T03:06:25.277Z,0.00
2018-05-01T03:08:17.055Z,4.00
2018-05-01T03:09:16.980Z,0.00
2018-05-01T03:11:08.758Z,4.00
2018-05-01T03:12:08.704Z,4.00
2018-05-01T03:14:00.507Z,4.00
2018-05-01T03:15:00.430Z,4.00
2018-05-01T03:16:52.296Z,8.00
2018-05-01T03:17:52.177Z,8.00
2018-05-01T03:19:43.973Z,12.00
2018-05-01T03:20:43.899Z,16.00
2018-05-01T03:22:35.682Z,20.00
2018-05-01T03:23:35.598Z,20.00
2018-05-01T03:25:27.387Z,20.00
2018-05-01T03:26:27.296Z,28.00
2018-05-01T03:28:19.085Z,28.00
2018-05-01T03:29:19.014Z,28.00
2018-05-01T03:31:10.763Z,36.00
2018-05-01T03:32:10.696Z,40.00
2018-05-01T03:34:02.479Z,44.00
2018-05-01T03:35:02.435Z,44.00
2018-05-01T03:36:54.152Z,52.00
2018-05-01T03:37:54.096Z,60.00
2018-05-01T03:39:45.852Z,68.00
2018-05-01T03:40:45.780Z,68.00
2018-05-01T03:42:37.565Z,80.00
2018-05-01T03:43:37.495Z,88.00
2018-05-01T03:45:29.287Z,100.00
2018-05-01T03:46:29.215Z,112.00
2018-05-01T03:48:20.972Z,132.00
2018-05-01T03:49:20.894Z,140.00
2018-05-01T03:51:12.638Z,164.00
2018-05-01T03:52:12.573Z,176.00
2018-05-01T03:54:04.334Z,196.00
2018-05-01T03:55:04.262Z,204.00
2018-05-01T03:56:56.018Z,216.00
2018-05-01T03:57:55.958Z,224.00
2018-05-01T03:59:47.715Z,240.00
2018-05-01T04:00:47.641Z,256.00
2018-05-01T04:02:39.444Z,292.00
2018-05-01T04:03:39.381Z,308.00
2018-05-01T04:05:31.178Z,340.00
2018-05-01T04:06:31.099Z,348.00
2018-05-01T04:08:22.890Z,364.00
2018-05-01T04:09:22.806Z,376.00
2018-05-01T04:11:14.603Z,404.00
2018-05-01T04:12:14.542Z,444.00
2018-05-01T04:14:06.368Z,488.00
2018-05-01T04:15:06.280Z,508.00
2018-05-01T04:16:58.036Z,564.00
2018-05-01T04:17:57.971Z,588.00
2018-05-01T04:19:49.723Z,672.00
2018-05-01T04:20:49.656Z,704.00
2018-05-01T04:22:41.401Z,800.00
2018-05-01T04:23:41.337Z,828.00
2018-05-01T04:25:33.122Z,904.00
2018-05-01T04:26:33.059Z,932.00
2018-05-01T04:28:24.786Z,980.00
2018-05-01T04:29:24.728Z,1024.00
2018-05-01T04:31:16.492Z,1080.00
2018-05-01T04:32:16.439Z,1100.00
2018-05-01T04:34:08.175Z,1096.00
2018-05-01T04:35:08.100Z,1128.00
2018-05-01T04:36:59.860Z,1164.00
2018-05-01T04:37:59.782Z,1196.00
2018-05-01T04:39:51.549Z,1220.00
2018-05-01T04:40:51.475Z,1236.00
2018-05-01T04:42:43.264Z,1324.00
2018-05-01T04:43:43.201Z,1356.00
2018-05-01T04:45:34.962Z,1404.00
2018-05-01T04:46:34.893Z,1428.00
2018-05-01T04:48:26.642Z,1432.00
2018-05-01T04:49:26.581Z,1440.00
2018-05-01T04:51:18.355Z,1488.00
2018-05-01T04:52:18.280Z,1496.00
2018-05-01T04:54:10.033Z,1540.00
2018-05-01T04:55:09.957Z,1584.00
2018-05-01T04:57:01.722Z,1712.00
2018-05-01T04:58:01.666Z,1776.00
2018-05-01T04:59:53.425Z,1764.00
2018-05-01T05:00:53.351Z,1736.00
2018-05-01T05:02:45.104Z,1672.00
2018-05-01T05:03:45.034Z,1656.00
2018-05-01T05:05:36.793Z,1652.00
2018-05-01T05:06:36.721Z,1640.00
2018-05-01T05:08:28.490Z,1608.00
2018-05-01T05:09:28.561Z,1592.00
2018-05-01T05:11:20.183Z,1548.00
2018-05-01T05:12:20.121Z,1484.00
2018-05-01T05:14:11.862Z,1356.00
2018-05-01T05:15:11.818Z,1352.00
2018-05-01T05:17:03.566Z,1300.00
2018-05-01T05:18:03.495Z,1292.00
2018-05-01T05:19:55.245Z,1256.00
2018-05-01T05:20:55.170Z,1264.00
2018-05-01T05:22:46.941Z,1324.00
2018-05-01T05:23:46.873Z,1332.00
2018-05-01T05:25:38.643Z,1296.00
2018-05-01T05:26:38.577Z,1284.00
2018-05-01T05:28:30.331Z,1360.00
2018-05-01T05:29:30.268Z,1388.00
2018-05-01T05:31:22.027Z,1884.00
2018-05-01T05:32:21.955Z,4104.00
2018-05-01T05:34:13.707Z,2292.00
2018-05-01T05:35:13.654Z,2036.00
2018-05-01T05:37:05.416Z,2076.00
2018-05-01T05:38:05.345Z,2412.00
2018-05-01T05:39:57.177Z,7284.00
2018-05-01T05:40:57.050Z,4148.00
2018-05-01T05:42:48.873Z,5096.00
2018-05-01T05:43:48.778Z,5344.00
2018-05-01T05:45:40.506Z,7628.00
2018-05-01T05:46:40.477Z,7696.00
2018-05-01T05:48:32.197Z,7028.00
2018-05-01T05:49:32.133Z,9028.00
2018-05-01T05:51:23.904Z,7756.00
2018-05-01T05:52:23.833Z,9456.00
2018-05-01T05:54:15.585Z,8996.00
2018-05-01T05:55:15.531Z,9268.00
2018-05-01T05:57:07.324Z,9472.00
2018-05-01T05:58:07.244Z,9564.00
2018-05-01T05:59:59.140Z,8144.00
2018-05-01T06:00:58.939Z,9512.00
2018-05-01T06:02:50.708Z,9668.00
2018-05-01T06:03:50.642Z,9828.00
2018-05-01T06:05:42.405Z,9892.00
2018-05-01T06:06:42.362Z,10180.00
2018-05-01T06:08:34.114Z,11316.00
2018-05-01T06:09:34.053Z,12404.00
2018-05-01T06:11:25.835Z,13196.00
2018-05-01T06:12:25.769Z,12772.00
2018-05-01T06:14:17.520Z,11660.00
2018-05-01T06:15:17.465Z,12072.00
2018-05-01T06:17:09.232Z,10264.00
2018-05-01T06:18:09.168Z,9948.00
2018-05-01T06:20:00.937Z,11772.00
2018-05-01T06:21:00.880Z,13696.00
2018-05-01T06:22:52.686Z,13920.00
2018-05-01T06:23:52.615Z,15040.00
2018-05-01T06:25:44.392Z,15552.00
2018-05-01T06:26:44.326Z,16608.00
2018-05-01T06:28:36.141Z,17920.00
2018-05-01T06:29:36.084Z,17568.00
2018-05-01T06:31:27.857Z,18176.00
2018-05-01T06:32:27.792Z,19872.00
2018-05-01T06:34:19.553Z,19264.00
2018-05-01T06:35:19.503Z,18528.00
2018-05-01T06:37:11.306Z,7692.00
2018-05-01T06:38:11.243Z,22336.00
2018-05-01T06:40:03.005Z,25024.00
2018-05-01T06:41:02.951Z,24064.00
2018-05-01T06:42:54.744Z,23552.00
2018-05-01T06:43:54.694Z,24384.00
2018-05-01T06:45:46.446Z,24960.00
2018-05-01T06:46:46.391Z,24576.00
2018-05-01T06:48:38.167Z,23104.00
2018-05-01T06:49:38.103Z,23936.00
2018-05-01T06:51:29.882Z,24800.00
2018-05-01T06:52:29.804Z,24800.00
2018-05-01T06:54:21.676Z,23456.00
2018-05-01T06:55:21.625Z,23328.00
2018-05-01T06:57:13.412Z,25568.00
2018-05-01T06:58:13.349Z,25856.00
2018-05-01T07:00:05.106Z,22784.00
2018-05-01T07:01:05.057Z,22752.00
2018-05-01T07:02:56.825Z,16800.00
2018-05-01T07:03:56.764Z,11672.00
2018-05-01T07:05:48.537Z,13344.00
2018-05-01T07:06:48.489Z,18080.00
2018-05-01T07:08:40.260Z,24320.00
2018-05-01T07:09:40.197Z,18848.00
2018-05-01T07:11:31.969Z,29280.00
2018-05-01T07:12:31.907Z,25280.00
2018-05-01T07:14:23.670Z,23424.00
2018-05-01T07:15:23.614Z,16992.00
2018-05-01T07:17:15.408Z,10556.00
2018-05-01T07:18:15.340Z,10848.00
2018-05-01T07:20:07.118Z,17472.00
2018-05-01T07:21:07.125Z,15776.00
2018-05-01T07:22:58.837Z,14528.00
2018-05-01T07:23:58.785Z,18464.00
2018-05-01T07:25:50.546Z,20416.00
2018-05-01T07:26:50.491Z,21568.00
2018-05-01T07:28:42.260Z,23008.00
2018-05-01T07:29:42.196Z,20800.00
2018-05-01T07:31:33.966Z,21536.00
2018-05-01T07:32:33.913Z,22016.00
2018-05-01T07:34:25.711Z,24416.00
2018-05-01T07:35:25.626Z,23808.00
2018-05-01T07:37:17.426Z,24576.00
2018-05-01T07:38:17.393Z,24096.00
2018-05-01T07:40:09.146Z,21024.00
2018-05-01T07:41:09.128Z,21184.00
2018-05-01T07:43:00.881Z,19744.00
2018-05-01T07:44:00.823Z,13620.00
2018-05-01T07:45:52.599Z,20288.00
2018-05-01T07:46:52.578Z,10700.00
2018-05-01T07:48:44.334Z,12696.00
2018-05-01T07:49:44.269Z,16736.00
2018-05-01T07:51:36.055Z,22432.00
2018-05-01T07:52:35.997Z,22848.00
2018-05-01T07:54:27.791Z,19104.00
2018-05-01T07:55:27.725Z,25216.00
2018-05-01T07:57:19.511Z,8376.00
2018-05-01T07:58:19.450Z,21088.00
2018-05-01T08:00:11.236Z,14528.00
2018-05-01T08:01:11.177Z,6356.00
2018-05-01T08:03:02.967Z,3456.00
2018-05-01T08:04:02.903Z,47872.00
2018-05-01T08:05:54.677Z,19360.00
2018-05-01T08:06:54.649Z,7708.00
2018-05-01T08:08:46.413Z,19392.00
2018-05-01T08:09:46.350Z,31744.00
2018-05-01T08:11:38.129Z,11296.00
2018-05-01T08:12:38.074Z,7632.00
2018-05-01T08:14:29.861Z,6088.00
2018-05-01T08:15:29.799Z,6160.00
2018-05-01T08:17:21.590Z,6248.00
2018-05-01T08:18:21.522Z,15400.00
2018-05-01T08:20:13.300Z,6184.00
2018-05-01T08:21:13.247Z,17344.00
2018-05-01T08:23:05.033Z,8216.00
2018-05-01T08:24:04.974Z,8184.00
2018-05-01T08:25:56.723Z,17344.00
2018-05-01T08:26:56.670Z,8608.00
2018-05-01T08:28:48.436Z,11124.00
2018-05-01T08:29:48.373Z,14828.00
2018-05-01T08:31:40.182Z,7436.00
2018-05-01T08:32:40.127Z,20000.00
2018-05-01T08:34:31.902Z,17248.00
2018-05-01T08:35:31.833Z,14148.00
2018-05-01T08:37:23.606Z,10908.00
2018-05-01T08:38:23.546Z,9584.00
2018-05-01T08:40:15.323Z,10580.00
2018-05-01T08:41:15.254Z,10492.00
2018-05-01T08:43:07.021Z,9728.00
2018-05-01T08:44:06.959Z,8812.00
2018-05-01T08:45:58.727Z,8752.00
2018-05-01T08:46:58.675Z,10776.00
2018-05-01T08:48:50.447Z,9044.00
2018-05-01T08:49:50.381Z,10456.00
2018-05-01T08:51:42.140Z,13704.00
2018-05-01T08:52:42.089Z,12624.00
2018-05-01T08:54:33.851Z,13140.00
2018-05-01T08:55:33.785Z,17216.00
2018-05-01T08:57:25.567Z,9848.00
2018-05-01T08:58:25.485Z,12908.00
2018-05-01T09:00:17.263Z,15552.00
2018-05-01T09:01:17.191Z,15712.00
2018-05-01T09:03:08.965Z,15520.00
2018-05-01T09:04:08.908Z,38080.00
2018-05-01T09:06:00.657Z,37120.00
2018-05-01T09:07:00.597Z,38816.00
2018-05-01T09:08:52.384Z,17504.00
2018-05-01T09:09:52.318Z,26016.00
2018-05-01T09:11:44.108Z,16320.00
2018-05-01T09:12:44.045Z,2944.00
2018-05-01T09:14:35.834Z,20096.00
2018-05-01T09:15:35.770Z,16384.00
2018-05-01T09:17:27.546Z,14400.00
2018-05-01T09:18:27.574Z,12424.00
2018-05-01T09:20:19.287Z,14144.00
2018-05-01T09:21:19.221Z,15776.00
2018-05-01T09:23:10.999Z,14560.00
2018-05-01T09:24:10.951Z,41632.00
2018-05-01T09:26:02.734Z,24512.00
2018-05-01T09:27:02.684Z,47168.00
2018-05-01T09:28:54.460Z,17952.00
2018-05-01T09:29:54.404Z,37728.00
2018-05-01T09:31:46.164Z,17120.00
2018-05-01T09:32:46.111Z,51008.00
2018-05-01T09:34:37.893Z,58432.00
2018-05-01T09:35:37.831Z,55744.00
2018-05-01T09:37:29.592Z,91552.00
2018-05-01T09:38:29.542Z,54784.00
2018-05-01T09:40:21.322Z,55072.00
2018-05-01T09:41:21.262Z,56416.00
2018-05-01T09:43:13.033Z,17280.00
2018-05-01T09:44:12.981Z,61344.00
2018-05-01T09:46:04.783Z,60160.00
2018-05-01T09:47:04.710Z,57728.00
2018-05-01T09:48:56.491Z,58432.00
2018-05-01T09:49:56.430Z,60480.00
2018-05-01T09:51:48.202Z,60736.00
2018-05-01T09:52:48.149Z,15552.00
2018-05-01T09:54:39.938Z,59904.00
2018-05-01T09:55:39.883Z,5192.00
2018-05-01T09:57:31.656Z,58592.00
2018-05-01T09:58:31.600Z,45344.00
2018-05-01T10:00:23.390Z,50720.00
2018-05-01T10:01:23.326Z,52672.00
2018-05-01T10:03:15.110Z,53632.00
2018-05-01T10:04:15.051Z,59616.00
2018-05-01T10:06:06.838Z,42304.00
2018-05-01T10:07:06.786Z,56864.00
2018-05-01T10:08:58.557Z,58176.00
2018-05-01T10:09:58.507Z,13728.00
2018-05-01T10:11:50.287Z,54112.00
2018-05-01T10:12:50.226Z,15608.00
2018-05-01T10:14:42.018Z,59584.00
2018-05-01T10:15:41.954Z,61056.00
2018-05-01T10:17:33.728Z,59104.00
2018-05-01T10:18:33.676Z,58880.00
2018-05-01T10:20:25.543Z,58048.00
2018-05-01T10:21:25.430Z,58848.00
2018-05-01T10:23:17.232Z,61024.00
2018-05-01T10:24:17.163Z,61504.00
2018-05-01T10:26:08.935Z,8664.00
2018-05-01T10:27:08.870Z,68800.00
2018-05-01T10:29:00.641Z,48480.00
2018-05-01T10:30:00.599Z,37568.00
2018-05-01T10:31:52.370Z,66112.00
2018-05-01T10:32:52.314Z,65536.00
2018-05-01T10:34:44.091Z,62240.00
2018-05-01T10:35:44.028Z,63136.00
2018-05-01T10:37:35.809Z,60064.00
2018-05-01T10:38:35.863Z,60832.00
2018-05-01T10:40:27.545Z,61088.00
2018-05-01T10:41:27.481Z,60000.00
2018-05-01T10:43:19.280Z,62368.00
2018-05-01T10:44:19.227Z,64224.00
2018-05-01T10:46:11.008Z,59296.00
2018-05-01T10:47:10.947Z,64704.00
2018-05-01T10:49:02.710Z,63648.00
2018-05-01T10:50:02.668Z,60960.00
2018-05-01T10:51:54.452Z,61856.00
2018-05-01T10:52:54.392Z,63200.00
2018-05-01T10:54:46.217Z,62688.00
2018-05-01T10:55:46.112Z,63872.00
2018-05-01T10:57:37.889Z,62016.00
2018-05-01T10:58:37.830Z,60672.00
2018-05-01T11:00:29.617Z,59584.00
2018-05-01T11:01:29.554Z,57632.00
2018-05-01T11:03:21.330Z,57632.00
2018-05-01T11:04:21.280Z,55072.00
2018-05-01T11:06:13.071Z,53344.00
2018-05-01T11:07:13.029Z,38272.00
2018-05-01T11:09:04.780Z,5556.00
2018-05-01T11:10:04.731Z,5128.00
2018-05-01T11:11:56.593Z,5012.00
2018-05-01T11:12:56.455Z,4836.00
2018-05-01T11:14:48.263Z,3984.00
2018-05-01T11:15:48.210Z,3712.00
2018-05-01T11:17:39.999Z,4036.00
2018-05-01T11:18:39.936Z,5276.00
2018-05-01T11:20:31.726Z,5628.00
2018-05-01T11:21:31.660Z,5788.00
2018-05-01T11:23:23.448Z,5128.00
2018-05-01T11:24:23.390Z,5492.00
2018-05-01T11:26:15.263Z,5564.00
2018-05-01T11:27:15.114Z,4452.00
2018-05-01T11:29:06.898Z,6084.00
2018-05-01T11:30:06.839Z,6836.00
2018-05-01T11:31:58.634Z,5728.00
2018-05-01T11:32:58.566Z,6312.00
2018-05-01T11:34:50.348Z,6584.00
2018-05-01T11:35:50.287Z,5936.00
2018-05-01T11:37:42.123Z,4004.00
2018-05-01T11:38:42.060Z,3900.00
2018-05-01T11:40:33.814Z,5488.00
2018-05-01T11:41:33.780Z,6148.00
2018-05-01T11:43:25.540Z,6528.00
2018-05-01T11:44:25.468Z,5860.00
2018-05-01T11:46:17.269Z,5920.00
2018-05-01T11:47:17.194Z,6364.00
2018-05-01T11:49:08.968Z,6280.00
2018-05-01T11:50:08.904Z,5820.00
2018-05-01T11:52:00.680Z,5040.00
2018-05-01T11:53:00.612Z,5756.00
2018-05-01T11:54:52.371Z,6212.00
2018-05-01T11:55:52.306Z,5604.00
2018-05-01T11:57:44.101Z,6652.00
2018-05-01T11:58:44.074Z,5796.00
2018-05-01T12:00:35.787Z,4348.00
2018-05-01T12:01:35.725Z,4212.00
2018-05-01T12:03:27.516Z,3504.00
2018-05-01T12:04:27.551Z,3660.00
2018-05-01T12:06:19.231Z,3144.00
2018-05-01T12:07:19.155Z,4080.00
2018-05-01T12:09:10.912Z,5292.00
2018-05-01T12:10:10.852Z,5032.00
2018-05-01T12:12:02.641Z,5560.00
2018-05-01T12:13:02.570Z,5816.00
2018-05-01T12:14:54.362Z,6156.00
2018-05-01T12:15:54.299Z,5720.00
2018-05-01T12:17:46.104Z,4044.00
2018-05-01T12:18:46.022Z,3620.00
2018-05-01T12:20:37.809Z,4224.00
2018-05-01T12:21:37.743Z,4180.00
2018-05-01T12:23:29.512Z,5036.00
2018-05-01T12:24:29.443Z,4460.00
2018-05-01T12:26:21.204Z,4584.00
2018-05-01T12:27:21.151Z,4692.00
2018-05-01T12:29:12.917Z,4148.00
2018-05-01T12:30:12.855Z,4372.00
2018-05-01T12:32:04.620Z,3628.00
2018-05-01T12:33:04.545Z,4244.00
2018-05-01T12:34:56.323Z,3728.00
2018-05-01T12:35:56.234Z,3016.00
2018-05-01T12:37:48.025Z,3976.00
2018-05-01T12:38:47.953Z,3500.00
2018-05-01T12:40:39.723Z,3380.00
2018-05-01T12:41:39.674Z,3152.00
2018-05-01T12:43:31.428Z,4004.00
2018-05-01T12:44:31.359Z,4740.00
2018-05-01T12:46:23.127Z,3720.00
2018-05-01T12:47:23.063Z,3468.00
2018-05-01T12:49:14.826Z,3096.00
2018-05-01T12:50:14.756Z,3508.00
2018-05-01T12:52:06.548Z,4604.00
2018-05-01T12:53:06.448Z,3992.00
2018-05-01T12:54:58.207Z,3596.00
2018-05-01T12:55:58.142Z,3468.00
2018-05-01T12:57:49.902Z,4656.00
2018-05-01T12:58:49.836Z,4244.00
2018-05-01T13:00:41.598Z,3976.00
2018-05-01T13:01:41.539Z,3596.00
2018-05-01T13:03:33.327Z,4772.00
2018-05-01T13:04:33.259Z,4372.00
2018-05-01T13:06:25.032Z,4692.00
2018-05-01T13:07:24.969Z,4084.00
2018-05-01T13:09:16.741Z,3132.00
2018-05-01T13:10:16.668Z,2376.00
2018-05-01T13:12:08.463Z,2600.00
2018-05-01T13:13:08.394Z,2508.00
2018-05-01T13:15:00.144Z,3076.00
2018-05-01T13:16:00.075Z,2684.00
2018-05-01T13:17:51.838Z,3348.00
2018-05-01T13:18:51.766Z,3536.00
2018-05-01T13:20:43.519Z,4420.00
2018-05-01T13:21:43.459Z,4316.00
2018-05-01T13:23:35.221Z,3756.00
2018-05-01T13:24:35.148Z,3408.00
2018-05-01T13:26:26.922Z,4076.00
2018-05-01T13:27:26.922Z,4280.00
2018-05-01T13:29:18.655Z,4376.00
2018-05-01T13:30:18.594Z,4216.00
2018-05-01T13:32:10.362Z,3988.00
2018-05-01T13:33:10.300Z,3804.00
2018-05-01T13:35:02.063Z,2952.00
2018-05-01T13:36:01.992Z,2900.00
2018-05-01T13:37:53.780Z,2980.00
2018-05-01T13:38:53.693Z,2984.00
2018-05-01T13:40:45.451Z,3796.00
2018-05-01T13:41:45.387Z,3352.00
2018-05-01T13:43:37.160Z,4048.00
2018-05-01T13:44:37.079Z,3848.00
2018-05-01T13:46:28.827Z,3236.00
2018-05-01T13:47:28.770Z,3740.00
2018-05-01T13:49:20.532Z,3244.00
2018-05-01T13:50:20.463Z,3104.00
2018-05-01T13:52:12.244Z,2728.00
2018-05-01T13:53:12.191Z,2624.00
2018-05-01T13:55:03.942Z,2600.00
2018-05-01T13:56:03.875Z,2592.00
2018-05-01T13:57:55.634Z,2528.00
2018-05-01T13:58:55.579Z,2384.00
2018-05-01T14:00:47.371Z,2172.00
2018-05-01T14:01:47.272Z,2404.00
2018-05-01T14:03:39.047Z,2476.00
2018-05-01T14:04:38.996Z,2308.00
2018-05-01T14:06:30.827Z,2228.00
2018-05-01T14:07:30.680Z,2784.00
2018-05-01T14:09:22.480Z,2604.00
2018-05-01T14:10:22.414Z,2492.00
2018-05-01T14:12:14.158Z,2384.00
2018-05-01T14:13:14.148Z,2252.00
2018-05-01T14:15:05.875Z,2276.00
2018-05-01T14:16:05.790Z,2244.00
2018-05-01T14:17:57.569Z,2204.00
2018-05-01T14:18:57.495Z,2176.00
2018-05-01T14:20:49.267Z,2248.00
2018-05-01T14:21:49.186Z,2400.00
2018-05-01T14:23:40.941Z,2276.00
2018-05-01T14:24:40.874Z,2228.00
2018-05-01T14:26:32.655Z,2276.00
2018-05-01T14:27:32.579Z,2456.00
2018-05-01T14:29:24.349Z,2128.00
2018-05-01T14:30:24.273Z,2036.00
2018-05-01T14:32:16.038Z,1652.00
2018-05-01T14:33:15.976Z,1672.00
2018-05-01T14:35:07.757Z,2452.00
2018-05-01T14:36:07.672Z,3260.00
2018-05-01T14:37:59.464Z,2588.00
2018-05-01T14:38:59.365Z,2708.00
2018-05-01T14:40:51.127Z,2920.00
2018-05-01T14:41:51.055Z,2692.00
2018-05-01T14:43:42.826Z,2836.00
2018-05-01T14:44:42.765Z,2972.00
2018-05-01T14:46:34.561Z,3016.00
2018-05-01T14:47:34.455Z,3168.00
2018-05-01T14:49:26.219Z,2860.00
2018-05-01T14:50:26.190Z,3308.00
2018-05-01T14:52:17.900Z,3184.00
2018-05-01T14:53:17.841Z,3364.00
2018-05-01T14:55:09.617Z,3016.00
2018-05-01T14:56:09.548Z,2540.00
2018-05-01T14:58:01.308Z,3216.00
2018-05-01T14:59:01.245Z,3408.00
2018-05-01T15:00:53.002Z,3700.00
2018-05-01T15:01:52.932Z,3896.00
2018-05-01T15:03:44.703Z,3812.00
2018-05-01T15:04:44.643Z,2712.00
2018-05-01T15:06:36.419Z,2312.00
2018-05-01T15:07:36.357Z,1948.00
2018-05-01T15:09:28.106Z,1708.00
2018-05-01T15:10:28.091Z,1612.00
2018-05-01T15:12:19.811Z,2228.00
2018-05-01T15:13:19.737Z,2408.00
2018-05-01T15:15:11.498Z,2276.00
2018-05-01T15:16:11.428Z,2004.00
2018-05-01T15:18:03.180Z,2732.00
2018-05-01T15:19:03.116Z,2376.00
2018-05-01T15:20:54.896Z,2716.00
2018-05-01T15:21:54.819Z,2492.00
2018-05-01T15:23:46.579Z,2744.00
2018-05-01T15:24:46.522Z,2732.00
2018-05-01T15:26:38.290Z,2600.00
2018-05-01T15:27:38.216Z,2364.00
2018-05-01T15:29:29.976Z,2172.00
2018-05-01T15:30:29.983Z,2028.00
2018-05-01T15:32:21.674Z,2516.00
2018-05-01T15:33:21.612Z,2544.00
2018-05-01T15:35:13.371Z,2852.00
2018-05-01T15:36:13.301Z,2540.00
2018-05-01T15:38:05.051Z,2456.00
2018-05-01T15:39:04.990Z,2548.00
2018-05-01T15:40:56.764Z,2740.00
2018-05-01T15:41:56.687Z,2696.00
2018-05-01T15:43:48.439Z,2736.00
2018-05-01T15:44:48.381Z,2184.00
2018-05-01T15:46:40.143Z,2424.00
2018-05-01T15:47:40.073Z,2372.00
2018-05-01T15:49:31.854Z,2156.00
2018-05-01T15:50:31.794Z,2204.00
2018-05-01T15:52:23.577Z,2176.00
2018-05-01T15:53:23.496Z,2320.00
2018-05-01T15:55:15.246Z,2144.00
2018-05-01T15:56:15.186Z,2156.00
2018-05-01T15:58:07.005Z,1844.00
2018-05-01T15:59:06.918Z,1752.00
2018-05-01T16:00:58.707Z,1676.00
2018-05-01T16:01:58.636Z,1680.00
2018-05-01T16:03:50.398Z,1780.00
2018-05-01T16:04:50.322Z,1760.00
2018-05-01T16:06:42.204Z,1624.00
2018-05-01T16:07:42.045Z,1672.00
2018-05-01T16:09:33.816Z,1688.00
2018-05-01T16:10:33.748Z,1632.00
2018-05-01T16:12:25.512Z,1668.00
2018-05-01T16:13:25.438Z,1652.00
2018-05-01T16:15:17.192Z,1544.00
2018-05-01T16:16:17.128Z,1524.00
2018-05-01T16:18:08.925Z,1492.00
2018-05-01T16:19:08.842Z,1560.00
2018-05-01T16:21:00.585Z,1636.00
2018-05-01T16:22:00.517Z,1752.00
2018-05-01T16:23:52.332Z,1696.00
2018-05-01T16:24:52.210Z,1668.00
2018-05-01T16:26:44.009Z,1552.00
2018-05-01T16:27:43.963Z,1500.00
2018-05-01T16:29:35.702Z,1524.00
2018-05-01T16:30:35.631Z,1468.00
2018-05-01T16:32:27.484Z,1444.00
2018-05-01T16:33:27.411Z,1420.00
2018-05-01T16:35:19.174Z,1340.00
2018-05-01T16:36:19.193Z,1324.00
2018-05-01T16:38:10.915Z,1320.00
2018-05-01T16:39:10.846Z,1300.00
2018-05-01T16:41:02.630Z,1056.00
2018-05-01T16:42:02.567Z,1128.00
2018-05-01T16:43:54.351Z,1276.00
2018-05-01T16:44:54.263Z,1160.00
2018-05-01T16:46:46.053Z,1100.00
2018-05-01T16:47:46.002Z,1212.00
2018-05-01T16:49:37.772Z,1224.00
2018-05-01T16:50:37.687Z,1208.00
2018-05-01T16:52:29.446Z,1188.00
2018-05-01T16:53:29.376Z,1172.00
2018-05-01T16:55:21.157Z,1160.00
2018-05-01T16:56:21.095Z,1152.00
2018-05-01T16:58:12.859Z,1136.00
2018-05-01T16:59:12.792Z,1140.00
2018-05-01T17:01:04.644Z,1116.00
2018-05-01T17:02:04.503Z,1108.00
2018-05-01T17:03:56.385Z,1104.00
2018-05-01T17:04:56.191Z,1096.00
2018-05-01T17:06:48.010Z,1156.00
2018-05-01T17:07:47.894Z,1084.00
2018-05-01T17:09:39.684Z,1044.00
2018-05-01T17:10:39.614Z,1024.00
2018-05-01T17:12:31.403Z,1048.00
2018-05-01T17:13:31.332Z,1024.00
2018-05-01T17:15:23.108Z,972.00
2018-05-01T17:16:23.031Z,960.00
2018-05-01T17:18:14.829Z,924.00
2018-05-01T17:19:14.755Z,912.00
2018-05-01T17:21:06.510Z,896.00
2018-05-01T17:22:06.461Z,888.00
2018-05-01T17:23:58.216Z,872.00
2018-05-01T17:24:58.155Z,868.00
2018-05-01T17:26:49.912Z,844.00
2018-05-01T17:27:49.853Z,832.00
2018-05-01T17:29:41.623Z,812.00
2018-05-01T17:30:41.551Z,800.00
2018-05-01T17:32:33.342Z,780.00